sensor_id;sensor_type;location;lat;lon;timestamp;P1;durP1;ratioP1;P2;durP2;ratioP2
30543;SDS011;43388;46.308;4.600;2022-09-28T00:01:25;2.55;;;2.05;;
30543;SDS011;43388;46.308;4.600;2022-09-28T00:03:52;1.77;;;1.67;;
30543;SDS011;43388;46.308;4.600;2022-09-28T00:06:20;1.85;;;1.70;;
30543;SDS011;43388;46.308;4.600;2022-09-28T00:08:48;2.20;;;2.10;;
30543;SDS011;43388;46.308;4.600;2022-09-28T00:11:14;2.15;;;1.95;;
30543;SDS011;43388;46.308;4.600;2022-09-28T00:13:42;1.80;;;1.70;;
30543;SDS011;43388;46.308;4.600;2022-09-28T00:16:13;3.42;;;1.75;;
30543;SDS011;43388;46.308;4.600;2022-09-28T00:18:40;4.45;;;1.67;;
30543;SDS011;43388;46.308;4.600;2022-09-28T00:21:08;1.98;;;1.70;;
30543;SDS011;43388;46.308;4.600;2022-09-28T00:23:35;2.17;;;1.50;;
30543;SDS011;43388;46.308;4.600;2022-09-28T00:26:20;1.85;;;1.75;;
30543;SDS011;43388;46.308;4.600;2022-09-28T00:28:46;2.15;;;1.77;;
30543;SDS011;43388;46.308;4.600;2022-09-28T00:31:12;1.63;;;1.50;;
30543;SDS011;43388;46.308;4.600;2022-09-28T00:33:38;1.83;;;1.83;;
30543;SDS011;43388;46.308;4.600;2022-09-28T00:36:04;1.92;;;1.83;;
30543;SDS011;43388;46.308;4.600;2022-09-28T00:38:30;1.75;;;1.65;;
30543;SDS011;43388;46.308;4.600;2022-09-28T00:40:56;1.70;;;1.60;;
30543;SDS011;43388;46.308;4.600;2022-09-28T00:43:23;1.45;;;1.35;;
30543;SDS011;43388;46.308;4.600;2022-09-28T00:45:55;2.38;;;1.60;;
30543;SDS011;43388;46.308;4.600;2022-09-28T00:48:23;1.50;;;1.40;;
30543;SDS011;43388;46.308;4.600;2022-09-28T00:50:52;1.33;;;1.33;;
30543;SDS011;43388;46.308;4.600;2022-09-28T00:53:23;1.20;;;1.20;;
30543;SDS011;43388;46.308;4.600;2022-09-28T00:55:51;8.23;;;2.67;;
30543;SDS011;43388;46.308;4.600;2022-09-28T00:58:20;2.00;;;1.50;;
30543;SDS011;43388;46.308;4.600;2022-09-28T01:00:47;1.60;;;1.50;;
30543;SDS011;43388;46.308;4.600;2022-09-28T01:03:14;1.55;;;1.55;;
30543;SDS011;43388;46.308;4.600;2022-09-28T01:05:40;2.15;;;1.50;;
30543;SDS011;43388;46.308;4.600;2022-09-28T01:08:08;1.50;;;1.40;;
30543;SDS011;43388;46.308;4.600;2022-09-28T01:10:34;1.35;;;1.35;;
30543;SDS011;43388;46.308;4.600;2022-09-28T01:13:00;1.60;;;1.50;;
30543;SDS011;43388;46.308;4.600;2022-09-28T01:15:27;1.13;;;1.10;;
30543;SDS011;43388;46.308;4.600;2022-09-28T01:25:54;1.35;;;1.25;;
30543;SDS011;43388;46.308;4.600;2022-09-28T01:28:24;1.40;;;1.30;;
30543;SDS011;43388;46.308;4.600;2022-09-28T01:30:55;1.40;;;1.30;;
30543;SDS011;43388;46.308;4.600;2022-09-28T01:33:27;1.15;;;1.15;;
30543;SDS011;43388;46.308;4.600;2022-09-28T01:36:13;2.05;;;1.25;;
30543;SDS011;43388;46.308;4.600;2022-09-28T01:38:45;1.70;;;1.60;;
30543;SDS011;43388;46.308;4.600;2022-09-28T01:41:11;1.58;;;1.42;;
30543;SDS011;43388;46.308;4.600;2022-09-28T01:43:39;1.40;;;1.40;;
30543;SDS011;43388;46.308;4.600;2022-09-28T01:46:12;1.35;;;1.35;;
30543;SDS011;43388;46.308;4.600;2022-09-28T01:48:41;1.50;;;1.50;;
30543;SDS011;43388;46.308;4.600;2022-09-28T01:51:10;1.55;;;1.20;;
30543;SDS011;43388;46.308;4.600;2022-09-28T01:53:40;1.90;;;1.40;;
30543;SDS011;43388;46.308;4.600;2022-09-28T01:56:10;1.45;;;1.38;;
30543;SDS011;43388;46.308;4.600;2022-09-28T01:58:39;1.60;;;1.50;;
30543;SDS011;43388;46.308;4.600;2022-09-28T02:01:20;1.55;;;1.45;;
30543;SDS011;43388;46.308;4.600;2022-09-28T02:03:50;1.60;;;1.50;;
30543;SDS011;43388;46.308;4.600;2022-09-28T02:06:20;1.73;;;1.40;;
30543;SDS011;43388;46.308;4.600;2022-09-28T02:08:54;1.52;;;1.50;;
30543;SDS011;43388;46.308;4.600;2022-09-28T02:11:23;1.30;;;1.30;;
30543;SDS011;43388;46.308;4.600;2022-09-28T02:13:59;4.28;;;1.52;;
30543;SDS011;43388;46.308;4.600;2022-09-28T02:18:56;1.50;;;1.50;;
30543;SDS011;43388;46.308;4.600;2022-09-28T02:21:27;1.35;;;1.23;;
30543;SDS011;43388;46.308;4.600;2022-09-28T02:23:54;2.00;;;1.48;;
30543;SDS011;43388;46.308;4.600;2022-09-28T02:26:22;1.30;;;1.30;;
30543;SDS011;43388;46.308;4.600;2022-09-28T02:28:49;1.35;;;1.30;;
30543;SDS011;43388;46.308;4.600;2022-09-28T02:31:15;1.25;;;1.23;;
30543;SDS011;43388;46.308;4.600;2022-09-28T02:33:42;1.30;;;1.20;;
30543;SDS011;43388;46.308;4.600;2022-09-28T02:36:08;1.40;;;1.30;;
30543;SDS011;43388;46.308;4.600;2022-09-28T02:38:35;1.50;;;1.40;;
30543;SDS011;43388;46.308;4.600;2022-09-28T02:43:37;1.20;;;1.20;;
30543;SDS011;43388;46.308;4.600;2022-09-28T02:51:17;4.07;;;1.40;;
30543;SDS011;43388;46.308;4.600;2022-09-28T02:59:52;2.10;;;1.45;;
30543;SDS011;43388;46.308;4.600;2022-09-28T03:02:29;1.40;;;1.38;;
30543;SDS011;43388;46.308;4.600;2022-09-28T03:05:12;1.10;;;1.10;;
30543;SDS011;43388;46.308;4.600;2022-09-28T03:07:56;2.40;;;1.20;;
30543;SDS011;43388;46.308;4.600;2022-09-28T03:10:58;1.23;;;1.13;;
30543;SDS011;43388;46.308;4.600;2022-09-28T03:13:15;1.30;;;1.30;;
30543;SDS011;43388;46.308;4.600;2022-09-28T03:15:42;1.10;;;1.10;;
30543;SDS011;43388;46.308;4.600;2022-09-28T03:18:08;1.35;;;1.27;;
30543;SDS011;43388;46.308;4.600;2022-09-28T03:20:35;1.17;;;1.17;;
30543;SDS011;43388;46.308;4.600;2022-09-28T03:23:01;2.05;;;1.13;;
30543;SDS011;43388;46.308;4.600;2022-09-28T03:25:28;1.40;;;1.30;;
30543;SDS011;43388;46.308;4.600;2022-09-28T03:27:54;1.10;;;1.10;;
30543;SDS011;43388;46.308;4.600;2022-09-28T03:30:20;1.30;;;1.27;;
30543;SDS011;43388;46.308;4.600;2022-09-28T03:32:46;1.25;;;1.25;;
30543;SDS011;43388;46.308;4.600;2022-09-28T03:35:12;1.13;;;1.13;;
30543;SDS011;43388;46.308;4.600;2022-09-28T03:37:38;2.40;;;1.25;;
30543;SDS011;43388;46.308;4.600;2022-09-28T03:40:04;1.02;;;1.02;;
30543;SDS011;43388;46.308;4.600;2022-09-28T03:42:30;1.30;;;1.25;;
30543;SDS011;43388;46.308;4.600;2022-09-28T03:44:56;5.32;;;1.13;;
30543;SDS011;43388;46.308;4.600;2022-09-28T03:47:22;1.30;;;1.30;;
30543;SDS011;43388;46.308;4.600;2022-09-28T03:49:48;1.17;;;1.17;;
30543;SDS011;43388;46.308;4.600;2022-09-28T03:52:14;1.27;;;1.25;;
30543;SDS011;43388;46.308;4.600;2022-09-28T03:54:40;1.00;;;1.00;;
30543;SDS011;43388;46.308;4.600;2022-09-28T03:57:06;1.17;;;1.13;;
30543;SDS011;43388;46.308;4.600;2022-09-28T03:59:32;1.10;;;1.10;;
30543;SDS011;43388;46.308;4.600;2022-09-28T04:02:01;0.90;;;0.90;;
30543;SDS011;43388;46.308;4.600;2022-09-28T04:04:27;1.30;;;1.30;;
30543;SDS011;43388;46.308;4.600;2022-09-28T04:06:53;1.35;;;1.10;;
30543;SDS011;43388;46.308;4.600;2022-09-28T04:09:19;1.30;;;1.10;;
30543;SDS011;43388;46.308;4.600;2022-09-28T04:11:46;1.25;;;1.25;;
30543;SDS011;43388;46.308;4.600;2022-09-28T04:14:12;1.58;;;1.10;;
30543;SDS011;43388;46.308;4.600;2022-09-28T04:16:38;1.00;;;1.00;;
30543;SDS011;43388;46.308;4.600;2022-09-28T04:19:04;0.90;;;0.90;;
30543;SDS011;43388;46.308;4.600;2022-09-28T04:21:30;1.10;;;1.10;;
30543;SDS011;43388;46.308;4.600;2022-09-28T04:23:56;1.13;;;1.08;;
30543;SDS011;43388;46.308;4.600;2022-09-28T04:26:24;1.10;;;1.10;;
30543;SDS011;43388;46.308;4.600;2022-09-28T04:28:50;1.20;;;1.00;;
30543;SDS011;43388;46.308;4.600;2022-09-28T04:34:04;1.45;;;1.35;;
30543;SDS011;43388;46.308;4.600;2022-09-28T04:36:30;1.05;;;1.05;;
30543;SDS011;43388;46.308;4.600;2022-09-28T04:38:56;1.58;;;1.35;;
30543;SDS011;43388;46.308;4.600;2022-09-28T04:41:22;1.20;;;1.20;;
30543;SDS011;43388;46.308;4.600;2022-09-28T04:43:48;1.10;;;1.10;;
30543;SDS011;43388;46.308;4.600;2022-09-28T04:46:14;1.25;;;1.20;;
30543;SDS011;43388;46.308;4.600;2022-09-28T04:48:40;1.70;;;1.40;;
30543;SDS011;43388;46.308;4.600;2022-09-28T04:51:07;1.10;;;1.00;;
30543;SDS011;43388;46.308;4.600;2022-09-28T04:53:33;1.10;;;1.10;;
30543;SDS011;43388;46.308;4.600;2022-09-28T04:55:59;1.63;;;1.30;;
30543;SDS011;43388;46.308;4.600;2022-09-28T04:58:26;1.20;;;1.20;;
30543;SDS011;43388;46.308;4.600;2022-09-28T05:00:52;0.90;;;0.90;;
30543;SDS011;43388;46.308;4.600;2022-09-28T05:03:21;0.95;;;0.93;;
30543;SDS011;43388;46.308;4.600;2022-09-28T05:05:47;1.67;;;1.20;;
30543;SDS011;43388;46.308;4.600;2022-09-28T05:08:14;1.40;;;1.30;;
30543;SDS011;43388;46.308;4.600;2022-09-28T05:10:40;2.13;;;1.40;;
30543;SDS011;43388;46.308;4.600;2022-09-28T05:13:09;1.25;;;1.25;;
30543;SDS011;43388;46.308;4.600;2022-09-28T05:15:36;1.25;;;1.25;;
30543;SDS011;43388;46.308;4.600;2022-09-28T05:18:03;1.20;;;1.20;;
30543;SDS011;43388;46.308;4.600;2022-09-28T05:20:29;1.33;;;1.33;;
30543;SDS011;43388;46.308;4.600;2022-09-28T05:22:55;2.05;;;1.50;;
30543;SDS011;43388;46.308;4.600;2022-09-28T05:25:21;1.08;;;1.08;;
30543;SDS011;43388;46.308;4.600;2022-09-28T05:27:47;1.60;;;1.50;;
30543;SDS011;43388;46.308;4.600;2022-09-28T05:30:13;1.00;;;1.00;;
30543;SDS011;43388;46.308;4.600;2022-09-28T05:32:40;1.30;;;1.20;;
30543;SDS011;43388;46.308;4.600;2022-09-28T05:35:06;2.58;;;1.30;;
30543;SDS011;43388;46.308;4.600;2022-09-28T05:37:35;1.30;;;1.25;;
30543;SDS011;43388;46.308;4.600;2022-09-28T05:40:01;1.83;;;1.30;;
30543;SDS011;43388;46.308;4.600;2022-09-28T05:42:28;1.15;;;1.15;;
30543;SDS011;43388;46.308;4.600;2022-09-28T05:44:54;1.58;;;1.33;;
30543;SDS011;43388;46.308;4.600;2022-09-28T05:47:22;1.27;;;1.27;;
30543;SDS011;43388;46.308;4.600;2022-09-28T05:49:49;1.60;;;1.40;;
30543;SDS011;43388;46.308;4.600;2022-09-28T05:52:15;1.25;;;1.15;;
30543;SDS011;43388;46.308;4.600;2022-09-28T05:54:42;1.15;;;1.10;;
30543;SDS011;43388;46.308;4.600;2022-09-28T05:57:08;1.40;;;1.30;;
30543;SDS011;43388;46.308;4.600;2022-09-28T05:59:34;2.47;;;1.00;;
30543;SDS011;43388;46.308;4.600;2022-09-28T06:02:00;3.22;;;1.20;;
30543;SDS011;43388;46.308;4.600;2022-09-28T06:04:27;2.40;;;1.20;;
30543;SDS011;43388;46.308;4.600;2022-09-28T06:06:53;1.52;;;1.42;;
30543;SDS011;43388;46.308;4.600;2022-09-28T06:09:19;1.10;;;1.10;;
30543;SDS011;43388;46.308;4.600;2022-09-28T06:11:45;1.73;;;1.50;;
30543;SDS011;43388;46.308;4.600;2022-09-28T06:14:12;1.42;;;1.33;;
30543;SDS011;43388;46.308;4.600;2022-09-28T06:16:38;1.80;;;1.40;;
30543;SDS011;43388;46.308;4.600;2022-09-28T06:19:04;1.42;;;1.33;;
30543;SDS011;43388;46.308;4.600;2022-09-28T06:21:30;1.10;;;1.10;;
30543;SDS011;43388;46.308;4.600;2022-09-28T06:23:56;1.25;;;1.25;;
30543;SDS011;43388;46.308;4.600;2022-09-28T06:26:23;1.15;;;1.15;;
30543;SDS011;43388;46.308;4.600;2022-09-28T06:28:49;1.35;;;1.30;;
30543;SDS011;43388;46.308;4.600;2022-09-28T06:31:15;1.10;;;1.10;;
30543;SDS011;43388;46.308;4.600;2022-09-28T06:33:41;1.55;;;1.20;;
30543;SDS011;43388;46.308;4.600;2022-09-28T06:36:08;2.90;;;1.50;;
30543;SDS011;43388;46.308;4.600;2022-09-28T06:38:34;1.30;;;1.20;;
30543;SDS011;43388;46.308;4.600;2022-09-28T06:41:00;1.48;;;1.38;;
30543;SDS011;43388;46.308;4.600;2022-09-28T06:43:26;1.10;;;1.10;;
30543;SDS011;43388;46.308;4.600;2022-09-28T06:45:53;1.40;;;1.30;;
30543;SDS011;43388;46.308;4.600;2022-09-28T06:48:19;5.85;;;1.50;;
30543;SDS011;43388;46.308;4.600;2022-09-28T06:50:45;1.30;;;1.30;;
30543;SDS011;43388;46.308;4.600;2022-09-28T06:53:13;2.17;;;1.42;;
30543;SDS011;43388;46.308;4.600;2022-09-28T06:55:43;1.60;;;1.35;;
30543;SDS011;43388;46.308;4.600;2022-09-28T06:58:11;2.58;;;1.40;;
30543;SDS011;43388;46.308;4.600;2022-09-28T07:00:37;1.35;;;1.23;;
30543;SDS011;43388;46.308;4.600;2022-09-28T07:03:05;1.70;;;1.50;;
30543;SDS011;43388;46.308;4.600;2022-09-28T07:05:32;1.73;;;1.13;;
30543;SDS011;43388;46.308;4.600;2022-09-28T07:08:01;1.27;;;1.23;;
30543;SDS011;43388;46.308;4.600;2022-09-28T07:10:27;3.17;;;1.25;;
30543;SDS011;43388;46.308;4.600;2022-09-28T07:12:54;1.40;;;1.30;;
30543;SDS011;43388;46.308;4.600;2022-09-28T07:15:20;1.27;;;1.08;;
30543;SDS011;43388;46.308;4.600;2022-09-28T07:17:47;1.15;;;1.15;;
30543;SDS011;43388;46.308;4.600;2022-09-28T07:20:13;1.35;;;1.10;;
30543;SDS011;43388;46.308;4.600;2022-09-28T07:22:39;1.52;;;1.50;;
30543;SDS011;43388;46.308;4.600;2022-09-28T07:25:06;1.52;;;1.17;;
30543;SDS011;43388;46.308;4.600;2022-09-28T07:27:32;1.38;;;1.25;;
30543;SDS011;43388;46.308;4.600;2022-09-28T07:30:01;1.20;;;1.20;;
30543;SDS011;43388;46.308;4.600;2022-09-28T07:32:27;1.10;;;1.10;;
30543;SDS011;43388;46.308;4.600;2022-09-28T07:34:53;1.50;;;1.50;;
30543;SDS011;43388;46.308;4.600;2022-09-28T07:37:20;1.48;;;1.40;;
30543;SDS011;43388;46.308;4.600;2022-09-28T07:39:48;3.75;;;1.40;;
30543;SDS011;43388;46.308;4.600;2022-09-28T07:42:32;1.85;;;1.75;;
30543;SDS011;43388;46.308;4.600;2022-09-28T07:44:58;2.35;;;1.48;;
30543;SDS011;43388;46.308;4.600;2022-09-28T07:47:25;2.05;;;1.40;;
30543;SDS011;43388;46.308;4.600;2022-09-28T07:49:52;3.10;;;1.38;;
30543;SDS011;43388;46.308;4.600;2022-09-28T07:52:19;1.67;;;1.58;;
30543;SDS011;43388;46.308;4.600;2022-09-28T07:54:48;1.60;;;1.42;;
30543;SDS011;43388;46.308;4.600;2022-09-28T07:57:16;1.92;;;1.58;;
30543;SDS011;43388;46.308;4.600;2022-09-28T07:59:43;2.15;;;1.75;;
30543;SDS011;43388;46.308;4.600;2022-09-28T08:02:10;2.55;;;1.70;;
30543;SDS011;43388;46.308;4.600;2022-09-28T08:04:36;1.85;;;1.48;;
30543;SDS011;43388;46.308;4.600;2022-09-28T08:07:02;3.75;;;1.80;;
30543;SDS011;43388;46.308;4.600;2022-09-28T08:09:28;1.77;;;1.52;;
30543;SDS011;43388;46.308;4.600;2022-09-28T08:11:54;3.95;;;1.77;;
30543;SDS011;43388;46.308;4.600;2022-09-28T08:14:21;2.05;;;1.90;;
30543;SDS011;43388;46.308;4.600;2022-09-28T08:16:48;2.85;;;1.65;;
30543;SDS011;43388;46.308;4.600;2022-09-28T08:19:14;4.72;;;1.50;;
30543;SDS011;43388;46.308;4.600;2022-09-28T08:21:40;3.60;;;1.60;;
30543;SDS011;43388;46.308;4.600;2022-09-28T08:24:09;3.15;;;1.77;;
30543;SDS011;43388;46.308;4.600;2022-09-28T08:26:35;1.98;;;1.85;;
30543;SDS011;43388;46.308;4.600;2022-09-28T08:29:01;1.73;;;1.63;;
30543;SDS011;43388;46.308;4.600;2022-09-28T08:31:28;2.28;;;2.08;;
30543;SDS011;43388;46.308;4.600;2022-09-28T08:33:55;1.70;;;1.60;;
30543;SDS011;43388;46.308;4.600;2022-09-28T08:36:21;2.45;;;1.30;;
30543;SDS011;43388;46.308;4.600;2022-09-28T08:38:48;2.53;;;1.48;;
30543;SDS011;43388;46.308;4.600;2022-09-28T08:44:00;1.90;;;1.65;;
30543;SDS011;43388;46.308;4.600;2022-09-28T08:46:37;1.88;;;1.60;;
30543;SDS011;43388;46.308;4.600;2022-09-28T08:49:06;1.60;;;1.50;;
30543;SDS011;43388;46.308;4.600;2022-09-28T08:54:03;3.30;;;1.83;;
30543;SDS011;43388;46.308;4.600;2022-09-28T08:59:02;1.60;;;1.40;;
30543;SDS011;43388;46.308;4.600;2022-09-28T09:01:33;4.47;;;1.73;;
30543;SDS011;43388;46.308;4.600;2022-09-28T09:04:02;2.58;;;1.85;;
30543;SDS011;43388;46.308;4.600;2022-09-28T09:14:42;1.50;;;1.40;;
30543;SDS011;43388;46.308;4.600;2022-09-28T09:22:15;1.48;;;1.30;;
30543;SDS011;43388;46.308;4.600;2022-09-28T09:24:48;1.70;;;1.60;;
30543;SDS011;43388;46.308;4.600;2022-09-28T09:30:09;1.30;;;1.20;;
30543;SDS011;43388;46.308;4.600;2022-09-28T09:35:26;1.55;;;1.45;;
30543;SDS011;43388;46.308;4.600;2022-09-28T09:46:02;1.55;;;1.45;;
30543;SDS011;43388;46.308;4.600;2022-09-28T09:48:32;3.45;;;1.35;;
30543;SDS011;43388;46.308;4.600;2022-09-28T09:51:00;2.40;;;2.13;;
30543;SDS011;43388;46.308;4.600;2022-09-28T09:56:06;2.33;;;1.65;;
30543;SDS011;43388;46.308;4.600;2022-09-28T09:58:37;1.42;;;1.33;;
30543;SDS011;43388;46.308;4.600;2022-09-28T10:01:10;3.13;;;1.50;;
30543;SDS011;43388;46.308;4.600;2022-09-28T10:03:39;2.17;;;1.80;;
30543;SDS011;43388;46.308;4.600;2022-09-28T10:06:10;1.83;;;1.58;;
30543;SDS011;43388;46.308;4.600;2022-09-28T10:08:39;2.03;;;1.33;;
30543;SDS011;43388;46.308;4.600;2022-09-28T10:11:28;3.92;;;3.53;;
30543;SDS011;43388;46.308;4.600;2022-09-28T10:13:53;4.70;;;1.60;;
30543;SDS011;43388;46.308;4.600;2022-09-28T10:16:19;1.50;;;1.40;;
30543;SDS011;43388;46.308;4.600;2022-09-28T10:18:46;1.40;;;1.40;;
30543;SDS011;43388;46.308;4.600;2022-09-28T10:21:13;2.05;;;1.48;;
30543;SDS011;43388;46.308;4.600;2022-09-28T10:23:40;2.17;;;1.40;;
30543;SDS011;43388;46.308;4.600;2022-09-28T10:26:08;1.50;;;1.30;;
30543;SDS011;43388;46.308;4.600;2022-09-28T10:28:41;1.90;;;1.38;;
30543;SDS011;43388;46.308;4.600;2022-09-28T10:34:10;1.63;;;1.52;;
30543;SDS011;43388;46.308;4.600;2022-09-28T10:36:49;1.00;;;1.00;;
30543;SDS011;43388;46.308;4.600;2022-09-28T10:39:25;1.55;;;1.45;;
30543;SDS011;43388;46.308;4.600;2022-09-28T10:41:53;2.75;;;1.60;;
30543;SDS011;43388;46.308;4.600;2022-09-28T10:44:19;1.35;;;1.33;;
30543;SDS011;43388;46.308;4.600;2022-09-28T10:46:54;1.88;;;1.30;;
30543;SDS011;43388;46.308;4.600;2022-09-28T10:49:20;2.53;;;1.20;;
30543;SDS011;43388;46.308;4.600;2022-09-28T10:51:51;3.40;;;1.63;;
30543;SDS011;43388;46.308;4.600;2022-09-28T10:54:36;2.22;;;1.55;;
30543;SDS011;43388;46.308;4.600;2022-09-28T10:57:08;4.13;;;1.42;;
30543;SDS011;43388;46.308;4.600;2022-09-28T10:59:48;3.72;;;1.60;;
30543;SDS011;43388;46.308;4.600;2022-09-28T11:04:48;3.15;;;1.33;;
30543;SDS011;43388;46.308;4.600;2022-09-28T11:07:22;2.28;;;1.70;;
30543;SDS011;43388;46.308;4.600;2022-09-28T11:09:49;2.85;;;1.60;;
30543;SDS011;43388;46.308;4.600;2022-09-28T11:12:17;1.92;;;1.75;;
30543;SDS011;43388;46.308;4.600;2022-09-28T11:14:44;5.93;;;1.50;;
30543;SDS011;43388;46.308;4.600;2022-09-28T11:17:15;2.45;;;1.58;;
30543;SDS011;43388;46.308;4.600;2022-09-28T11:19:41;1.52;;;1.23;;
30543;SDS011;43388;46.308;4.600;2022-09-28T11:24:50;2.28;;;1.50;;
30543;SDS011;43388;46.308;4.600;2022-09-28T11:27:23;1.40;;;1.30;;
30543;SDS011;43388;46.308;4.600;2022-09-28T11:29:54;1.75;;;1.05;;
30543;SDS011;43388;46.308;4.600;2022-09-28T11:32:22;46.72;;;2.70;;
30543;SDS011;43388;46.308;4.600;2022-09-28T11:34:48;37.75;;;2.22;;
30543;SDS011;43388;46.308;4.600;2022-09-28T11:48:19;8.80;;;1.33;;
30543;SDS011;43388;46.308;4.600;2022-09-28T11:51:07;1.20;;;1.20;;
30543;SDS011;43388;46.308;4.600;2022-09-28T11:53:41;5.88;;;1.48;;
30543;SDS011;43388;46.308;4.600;2022-09-28T11:56:33;1.13;;;1.00;;
30543;SDS011;43388;46.308;4.600;2022-09-28T11:59:05;1.52;;;1.10;;
30543;SDS011;43388;46.308;4.600;2022-09-28T12:04:27;1.05;;;1.05;;
30543;SDS011;43388;46.308;4.600;2022-09-28T12:06:58;1.52;;;1.45;;
30543;SDS011;43388;46.308;4.600;2022-09-28T12:09:33;2.08;;;1.10;;
30543;SDS011;43388;46.308;4.600;2022-09-28T12:12:05;1.10;;;1.10;;
30543;SDS011;43388;46.308;4.600;2022-09-28T12:14:34;1.35;;;1.30;;
30543;SDS011;43388;46.308;4.600;2022-09-28T12:17:09;1.58;;;1.10;;
30543;SDS011;43388;46.308;4.600;2022-09-28T12:22:09;0.90;;;0.90;;
30543;SDS011;43388;46.308;4.600;2022-09-28T12:24:41;1.25;;;1.15;;
30543;SDS011;43388;46.308;4.600;2022-09-28T12:34:42;1.30;;;1.20;;
30543;SDS011;43388;46.308;4.600;2022-09-28T12:52:31;2.35;;;1.90;;
30543;SDS011;43388;46.308;4.600;2022-09-28T13:00:07;1.80;;;1.42;;
30543;SDS011;43388;46.308;4.600;2022-09-28T13:17:37;1.45;;;1.35;;
30543;SDS011;43388;46.308;4.600;2022-09-28T13:22:59;3.90;;;1.30;;
30543;SDS011;43388;46.308;4.600;2022-09-28T13:25:29;1.40;;;1.35;;
30543;SDS011;43388;46.308;4.600;2022-09-28T13:27:57;2.28;;;1.60;;
30543;SDS011;43388;46.308;4.600;2022-09-28T13:30:26;1.35;;;1.35;;
30543;SDS011;43388;46.308;4.600;2022-09-28T13:32:54;1.13;;;1.13;;
30543;SDS011;43388;46.308;4.600;2022-09-28T13:35:21;1.30;;;1.30;;
30543;SDS011;43388;46.308;4.600;2022-09-28T13:38:27;1.20;;;1.20;;
30543;SDS011;43388;46.308;4.600;2022-09-28T13:43:25;2.17;;;1.30;;
30543;SDS011;43388;46.308;4.600;2022-09-28T13:45:53;1.27;;;1.20;;
30543;SDS011;43388;46.308;4.600;2022-09-28T13:48:22;1.30;;;1.20;;
30543;SDS011;43388;46.308;4.600;2022-09-28T13:51:24;2.53;;;1.10;;
30543;SDS011;43388;46.308;4.600;2022-09-28T13:56:44;1.10;;;1.10;;
30543;SDS011;43388;46.308;4.600;2022-09-28T14:02:34;1.55;;;1.10;;
30543;SDS011;43388;46.308;4.600;2022-09-28T14:05:42;0.98;;;0.98;;
30543;SDS011;43388;46.308;4.600;2022-09-28T14:10:19;1.30;;;1.20;;
30543;SDS011;43388;46.308;4.600;2022-09-28T14:12:49;1.55;;;1.10;;
30543;SDS011;43388;46.308;4.600;2022-09-28T14:20:23;1.30;;;1.30;;
30543;SDS011;43388;46.308;4.600;2022-09-28T14:25:21;3.80;;;1.65;;
30543;SDS011;43388;46.308;4.600;2022-09-28T14:38:29;3.20;;;1.40;;
30543;SDS011;43388;46.308;4.600;2022-09-28T14:53:55;1.10;;;1.10;;
30543;SDS011;43388;46.308;4.600;2022-09-28T14:56:24;1.30;;;1.20;;
30543;SDS011;43388;46.308;4.600;2022-09-28T14:58:50;1.15;;;1.15;;
30543;SDS011;43388;46.308;4.600;2022-09-28T15:01:18;2.33;;;1.30;;
30543;SDS011;43388;46.308;4.600;2022-09-28T15:03:49;1.40;;;1.30;;
30543;SDS011;43388;46.308;4.600;2022-09-28T15:06:16;2.67;;;1.85;;
30543;SDS011;43388;46.308;4.600;2022-09-28T15:08:45;1.40;;;1.38;;
30543;SDS011;43388;46.308;4.600;2022-09-28T15:11:19;1.20;;;1.20;;
30543;SDS011;43388;46.308;4.600;2022-09-28T15:13:46;1.60;;;1.52;;
30543;SDS011;43388;46.308;4.600;2022-09-28T15:16:14;1.38;;;1.20;;
30543;SDS011;43388;46.308;4.600;2022-09-28T15:21:16;1.00;;;1.00;;
30543;SDS011;43388;46.308;4.600;2022-09-28T15:23:43;0.95;;;0.95;;
30543;SDS011;43388;46.308;4.600;2022-09-28T15:26:20;1.27;;;1.20;;
30543;SDS011;43388;46.308;4.600;2022-09-28T15:28:46;1.35;;;1.30;;
30543;SDS011;43388;46.308;4.600;2022-09-28T15:31:20;1.48;;;1.33;;
30543;SDS011;43388;46.308;4.600;2022-09-28T15:33:46;1.20;;;1.20;;
30543;SDS011;43388;46.308;4.600;2022-09-28T15:36:33;2.25;;;1.30;;
30543;SDS011;43388;46.308;4.600;2022-09-28T15:39:13;1.50;;;1.40;;
30543;SDS011;43388;46.308;4.600;2022-09-28T15:41:41;1.00;;;1.00;;
30543;SDS011;43388;46.308;4.600;2022-09-28T15:46:41;1.08;;;1.08;;
30543;SDS011;43388;46.308;4.600;2022-09-28T15:49:24;1.08;;;1.08;;
30543;SDS011;43388;46.308;4.600;2022-09-28T15:51:52;1.42;;;1.10;;
30543;SDS011;43388;46.308;4.600;2022-09-28T15:54:21;1.13;;;1.10;;
30543;SDS011;43388;46.308;4.600;2022-09-28T15:56:49;2.15;;;1.52;;
30543;SDS011;43388;46.308;4.600;2022-09-28T16:01:43;3.67;;;1.65;;
30543;SDS011;43388;46.308;4.600;2022-09-28T16:12:20;2.35;;;1.40;;
30543;SDS011;43388;46.308;4.600;2022-09-28T16:14:47;1.20;;;1.20;;
30543;SDS011;43388;46.308;4.600;2022-09-28T16:17:17;1.48;;;1.35;;
30543;SDS011;43388;46.308;4.600;2022-09-28T16:19:44;1.35;;;1.25;;
30543;SDS011;43388;46.308;4.600;2022-09-28T16:22:16;1.67;;;1.58;;
30543;SDS011;43388;46.308;4.600;2022-09-28T16:24:51;1.92;;;1.40;;
30543;SDS011;43388;46.308;4.600;2022-09-28T16:30:00;1.15;;;1.15;;
30543;SDS011;43388;46.308;4.600;2022-09-28T16:32:30;1.23;;;1.20;;
30543;SDS011;43388;46.308;4.600;2022-09-28T16:37:37;1.85;;;1.30;;
30543;SDS011;43388;46.308;4.600;2022-09-28T16:40:06;1.00;;;1.00;;
30543;SDS011;43388;46.308;4.600;2022-09-28T16:42:33;1.40;;;1.23;;
30543;SDS011;43388;46.308;4.600;2022-09-28T16:44:59;1.10;;;1.10;;
30543;SDS011;43388;46.308;4.600;2022-09-28T16:47:27;1.17;;;1.17;;
30543;SDS011;43388;46.308;4.600;2022-09-28T16:49:58;1.42;;;1.33;;
30543;SDS011;43388;46.308;4.600;2022-09-28T16:52:24;1.05;;;1.05;;
30543;SDS011;43388;46.308;4.600;2022-09-28T16:55:11;1.00;;;1.00;;
30543;SDS011;43388;46.308;4.600;2022-09-28T16:57:40;1.60;;;1.25;;
30543;SDS011;43388;46.308;4.600;2022-09-28T17:00:23;1.40;;;1.40;;
30543;SDS011;43388;46.308;4.600;2022-09-28T17:02:49;1.30;;;1.30;;
30543;SDS011;43388;46.308;4.600;2022-09-28T17:05:16;1.33;;;1.30;;
30543;SDS011;43388;46.308;4.600;2022-09-28T17:07:44;1.60;;;1.50;;
30543;SDS011;43388;46.308;4.600;2022-09-28T17:12:40;1.27;;;1.20;;
30543;SDS011;43388;46.308;4.600;2022-09-28T17:15:06;5.53;;;1.20;;
30543;SDS011;43388;46.308;4.600;2022-09-28T17:17:32;2.45;;;1.50;;
30543;SDS011;43388;46.308;4.600;2022-09-28T17:19:59;1.52;;;1.42;;
30543;SDS011;43388;46.308;4.600;2022-09-28T17:22:25;1.20;;;1.20;;
30543;SDS011;43388;46.308;4.600;2022-09-28T17:24:51;1.80;;;1.70;;
30543;SDS011;43388;46.308;4.600;2022-09-28T17:27:17;1.70;;;1.60;;
30543;SDS011;43388;46.308;4.600;2022-09-28T17:29:45;1.98;;;1.88;;
30543;SDS011;43388;46.308;4.600;2022-09-28T17:32:13;1.90;;;1.80;;
30543;SDS011;43388;46.308;4.600;2022-09-28T17:34:41;1.50;;;1.50;;
30543;SDS011;43388;46.308;4.600;2022-09-28T17:37:11;1.40;;;1.30;;
30543;SDS011;43388;46.308;4.600;2022-09-28T17:39:37;1.88;;;1.77;;
30543;SDS011;43388;46.308;4.600;2022-09-28T17:42:03;2.05;;;1.73;;
30543;SDS011;43388;46.308;4.600;2022-09-28T17:44:29;1.80;;;1.58;;
30543;SDS011;43388;46.308;4.600;2022-09-28T17:46:55;7.63;;;4.82;;
30543;SDS011;43388;46.308;4.600;2022-09-28T17:49:21;4.40;;;3.55;;
30543;SDS011;43388;46.308;4.600;2022-09-28T17:51:47;1.50;;;1.40;;
30543;SDS011;43388;46.308;4.600;2022-09-28T17:54:14;1.75;;;1.42;;
30543;SDS011;43388;46.308;4.600;2022-09-28T17:56:44;3.08;;;2.83;;
30543;SDS011;43388;46.308;4.600;2022-09-28T17:59:12;3.58;;;2.72;;
30543;SDS011;43388;46.308;4.600;2022-09-28T18:01:38;1.52;;;1.42;;
30543;SDS011;43388;46.308;4.600;2022-09-28T18:04:05;2.83;;;2.63;;
30543;SDS011;43388;46.308;4.600;2022-09-28T18:06:32;3.70;;;3.40;;
30543;SDS011;43388;46.308;4.600;2022-09-28T18:08:59;6.32;;;5.32;;
30543;SDS011;43388;46.308;4.600;2022-09-28T18:11:26;6.85;;;6.05;;
30543;SDS011;43388;46.308;4.600;2022-09-28T18:13:52;4.78;;;4.10;;
30543;SDS011;43388;46.308;4.600;2022-09-28T18:16:18;6.60;;;5.70;;
30543;SDS011;43388;46.308;4.600;2022-09-28T18:18:46;5.22;;;4.80;;